Time;durP1;ratioP1;P1;durP2;ratioP2;P2;SDS_P1;SDS_P2;PMS_P1;PMS_P2;Temp;Humidity;BMP_temperature;BMP_pressure;BME280_temperature;BME280_humidity;BME280_pressure;Samples;Min_cycle;Max_cycle;Signal;HPM_P1;HPM_P2
2024/04/02 00:00:40;;;;;;;2.30;0.88;;;10.50;99.90;;;;;;5018136;28;20446;-89
2024/04/02 00:03:08;;;;;;;1.95;0.85;;;10.50;99.90;;;;;;4985135;28;20496;-89
2024/04/02 00:05:35;;;;;;;1.95;0.73;;;10.50;99.90;;;;;;5003025;28;20053;-90
2024/04/02 00:08:05;;;;;;;1.05;0.70;;;10.50;99.90;;;;;;5001400;28;20061;-89
2024/04/02 00:10:33;;;;;;;1.50;0.83;;;10.50;99.90;;;;;;5017669;28;20030;-88
2024/04/02 00:12:59;;;;;;;0.90;0.70;;;10.50;99.90;;;;;;4984320;28;20036;-88
2024/04/02 00:15:25;;;;;;;1.27;0.52;;;10.50;99.90;;;;;;4999998;28;20033;-90
2024/04/02 00:17:51;;;;;;;1.27;0.73;;;10.40;99.90;;;;;;5017159;28;20034;-90
2024/04/02 00:20:17;;;;;;;2.05;0.80;;;10.40;99.90;;;;;;4983574;28;20037;-89
2024/04/02 00:22:43;;;;;;;2.53;0.70;;;10.40;99.90;;;;;;4983586;28;20030;-90
2024/04/02 00:25:09;;;;;;;0.90;0.70;;;10.40;99.90;;;;;;4999138;28;20036;-89
2024/04/02 00:27:35;;;;;;;1.23;0.68;;;10.40;99.90;;;;;;4999471;28;20093;-89
2024/04/02 00:30:04;;;;;;;1.35;0.80;;;10.40;99.90;;;;;;4999567;28;20025;-89
2024/04/02 00:32:33;;;;;;;1.42;0.88;;;10.40;99.90;;;;;;5016802;28;20022;-90
2024/04/02 00:34:59;;;;;;;1.33;0.60;;;10.40;99.90;;;;;;4999606;28;20480;-89
2024/04/02 00:37:24;;;;;;;1.60;0.73;;;10.40;99.90;;;;;;4999557;28;20032;-89
2024/04/02 00:39:50;;;;;;;2.92;0.77;;;10.30;99.90;;;;;;5016802;28;20065;-89
2024/04/02 00:42:17;;;;;;;1.60;0.70;;;10.40;99.90;;;;;;4999885;28;20025;-89
2024/04/02 00:44:43;;;;;;;1.48;0.90;;;10.30;99.90;;;;;;5002170;28;20033;-91
2024/04/02 00:47:09;;;;;;;1.00;0.63;;;10.40;99.90;;;;;;5023023;28;20026;-87
2024/04/02 00:49:36;;;;;;;1.08;0.55;;;10.40;99.90;;;;;;5022946;28;20049;-88
2024/04/02 00:52:03;;;;;;;2.00;0.68;;;10.30;99.90;;;;;;5006488;28;20006;-89
2024/04/02 00:54:31;;;;;;;1.35;0.80;;;10.30;99.90;;;;;;5001640;28;20045;-89
2024/04/02 00:56:57;;;;;;;1.05;0.70;;;10.30;99.90;;;;;;4982941;28;20085;-87
2024/04/02 00:59:23;;;;;;;1.85;0.80;;;10.20;99.90;;;;;;5016085;28;20026;-89
2024/04/02 01:01:50;;;;;;;0.60;0.60;;;10.20;99.90;;;;;;4998374;28;20021;-87
2024/04/02 01:04:20;;;;;;;1.48;0.77;;;10.20;99.90;;;;;;5015752;28;20017;-90
2024/04/02 01:06:47;;;;;;;1.33;1.02;;;10.20;99.90;;;;;;5015881;28;20109;-89
2024/04/02 01:09:18;;;;;;;1.48;0.63;;;10.20;99.90;;;;;;4998058;28;20536;-89
2024/04/02 01:11:44;;;;;;;1.67;0.60;;;10.20;99.90;;;;;;4998517;28;20507;-89
2024/04/02 01:14:10;;;;;;;0.93;0.80;;;10.20;99.90;;;;;;4998857;28;20021;-90
2024/04/02 01:16:42;;;;;;;2.33;0.90;;;10.20;99.90;;;;;;4998693;28;20037;-89
2024/04/02 01:19:09;;;;;;;2.10;0.85;;;10.20;99.90;;;;;;4998313;28;20049;-90
2024/04/02 01:21:35;;;;;;;1.58;0.77;;;10.20;99.90;;;;;;4982009;28;20105;-86
2024/04/02 01:24:01;;;;;;;0.77;0.52;;;10.20;99.90;;;;;;4998387;28;20045;-91
2024/04/02 01:26:27;;;;;;;2.80;0.88;;;10.10;99.90;;;;;;4998278;28;20029;-89
2024/04/02 01:28:55;;;;;;;1.27;0.70;;;10.20;99.90;;;;;;4981896;28;20120;-90
2024/04/02 01:31:21;;;;;;;2.35;0.93;;;10.20;99.90;;;;;;4997909;28;20091;-90
2024/04/02 01:33:47;;;;;;;1.52;1.05;;;10.20;99.90;;;;;;4981755;28;20022;-89
2024/04/02 01:36:13;;;;;;;2.35;0.80;;;10.10;99.90;;;;;;4981412;28;20034;-90
2024/04/02 01:38:39;;;;;;;1.00;0.73;;;10.10;99.90;;;;;;4981555;28;20061;-89
2024/04/02 01:41:04;;;;;;;2.08;0.93;;;10.10;99.90;;;;;;4982124;28;20037;-89
2024/04/02 01:43:33;;;;;;;1.88;0.65;;;10.10;99.90;;;;;;4998887;28;20109;-89
2024/04/02 01:45:58;;;;;;;2.70;0.85;;;10.10;99.90;;;;;;5017612;28;20045;-89
2024/04/02 01:48:24;;;;;;;2.00;0.93;;;10.10;99.90;;;;;;4985024;28;20046;-88
2024/04/02 01:50:50;;;;;;;1.85;0.90;;;10.10;99.90;;;;;;4982223;28;20030;-90
2024/04/02 01:53:15;;;;;;;1.85;1.00;;;10.10;99.90;;;;;;4998142;28;20033;-89
2024/04/02 01:55:41;;;;;;;1.35;0.80;;;10.10;99.90;;;;;;4998102;28;20037;-88
2024/04/02 01:58:06;;;;;;;2.50;0.90;;;10.00;99.90;;;;;;4981867;28;20034;-90
2024/04/02 02:00:32;;;;;;;2.05;0.73;;;10.00;99.90;;;;;;5001864;28;20026;-90
2024/04/02 02:02:57;;;;;;;1.52;0.80;;;10.00;99.90;;;;;;4998143;28;20084;-89
2024/04/02 02:05:23;;;;;;;1.70;0.90;;;10.00;99.90;;;;;;4998671;28;20108;-89
2024/04/02 02:07:51;;;;;;;1.77;1.00;;;10.00;99.90;;;;;;4982433;28;20030;-89
2024/04/02 02:10:17;;;;;;;2.25;0.90;;;10.00;99.90;;;;;;4986332;28;20117;-89
2024/04/02 02:12:43;;;;;;;1.58;0.90;;;10.00;99.90;;;;;;4998622;28;20457;-89
2024/04/02 02:15:08;;;;;;;1.08;0.70;;;10.00;99.90;;;;;;4983893;28;20030;-89
2024/04/02 02:17:34;;;;;;;2.53;1.00;;;10.00;99.90;;;;;;5001610;28;20038;-88
2024/04/02 02:20:00;;;;;;;2.55;1.10;;;10.00;99.90;;;;;;5021573;28;20014;-88
2024/04/02 02:22:25;;;;;;;2.50;0.90;;;10.00;99.90;;;;;;5004964;28;20030;-88
2024/04/02 02:24:51;;;;;;;1.92;1.20;;;10.00;99.90;;;;;;5034985;28;20029;-90
2024/04/02 02:27:17;;;;;;;1.30;0.90;;;10.00;99.90;;;;;;4981740;28;20030;-89
2024/04/02 02:29:42;;;;;;;1.35;0.90;;;9.90;99.90;;;;;;4997787;28;20030;-89
2024/04/02 02:32:08;;;;;;;2.17;1.02;;;9.90;99.90;;;;;;4980227;28;20021;-90
2024/04/02 02:34:33;;;;;;;1.23;0.65;;;10.00;99.90;;;;;;5014597;28;20034;-90
2024/04/02 02:36:59;;;;;;;1.83;1.10;;;9.90;99.90;;;;;;4997329;28;20041;-90
2024/04/02 02:39:25;;;;;;;0.80;0.73;;;9.90;99.90;;;;;;4981326;28;20041;-88
2024/04/02 02:41:51;;;;;;;1.90;0.90;;;9.90;99.90;;;;;;4997599;28;20124;-89
2024/04/02 02:44:17;;;;;;;1.40;0.80;;;9.80;99.90;;;;;;4997927;28;20455;-90
2024/04/02 02:46:44;;;;;;;2.88;1.10;;;9.80;99.90;;;;;;4992566;28;20394;-91
2024/04/02 02:49:09;;;;;;;4.07;1.20;;;9.80;99.90;;;;;;4999891;28;20035;-90
2024/04/02 02:51:35;;;;;;;1.35;1.10;;;9.80;99.90;;;;;;4968023;28;20501;-90
2024/04/02 02:54:01;;;;;;;2.85;1.20;;;9.80;99.90;;;;;;4988307;28;20125;-89
2024/04/02 02:56:26;;;;;;;2.00;0.82;;;9.80;99.90;;;;;;4987143;28;20121;-90
2024/04/02 02:58:52;;;;;;;0.70;0.70;;;9.80;99.90;;;;;;4993857;28;20035;-89
2024/04/02 03:01:18;;;;;;;1.15;0.90;;;9.80;99.90;;;;;;4995572;28;20049;-90
2024/04/02 03:03:48;;;;;;;2.13;1.00;;;9.80;99.90;;;;;;4984215;28;20026;-87
2024/04/02 03:06:14;;;;;;;0.88;0.80;;;9.80;99.90;;;;;;5001964;28;20006;-90
2024/04/02 03:08:40;;;;;;;2.35;1.25;;;9.70;99.90;;;;;;5000268;28;20057;-91
2024/04/02 03:11:07;;;;;;;2.08;0.98;;;9.70;99.90;;;;;;4991218;28;20538;-90
2024/04/02 03:13:34;;;;;;;3.03;0.93;;;9.70;99.90;;;;;;5000628;28;20029;-89
2024/04/02 03:16:06;;;;;;;1.65;0.93;;;9.70;99.90;;;;;;5002860;28;20058;-90
2024/04/02 03:18:32;;;;;;;1.30;0.80;;;9.70;99.90;;;;;;4968442;28;20493;-90
2024/04/02 03:21:00;;;;;;;1.88;1.00;;;9.70;99.90;;;;;;4981917;28;20490;-90
2024/04/02 03:23:28;;;;;;;1.17;0.88;;;9.60;99.90;;;;;;4982195;28;20041;-89
2024/04/02 03:26:02;;;;;;;1.85;0.93;;;9.60;99.90;;;;;;4965212;28;20038;-89
2024/04/02 03:28:30;;;;;;;2.25;1.13;;;9.60;99.90;;;;;;4966095;28;20034;-87
2024/04/02 03:30:59;;;;;;;1.85;1.05;;;9.60;99.90;;;;;;4966098;28;20386;-88
2024/04/02 03:33:31;;;;;;;1.27;1.00;;;9.50;99.90;;;;;;4981452;28;20050;-90
2024/04/02 03:36:04;;;;;;;2.15;1.10;;;9.50;99.90;;;;;;4981085;28;20430;-89
2024/04/02 03:38:36;;;;;;;2.00;1.15;;;9.50;99.90;;;;;;4981249;28;20030;-90
2024/04/02 03:41:09;;;;;;;2.03;1.00;;;9.50;99.90;;;;;;4998368;28;20040;-88
2024/04/02 03:43:36;;;;;;;1.50;1.10;;;9.50;99.90;;;;;;4981520;28;20031;-89
2024/04/02 03:46:03;;;;;;;3.10;1.00;;;9.50;99.90;;;;;;5003473;28;20033;-87
2024/04/02 03:48:29;;;;;;;3.67;1.40;;;9.50;99.90;;;;;;5007772;28;20010;-89
2024/04/02 03:50:55;;;;;;;2.25;1.17;;;9.50;99.90;;;;;;5024100;28;20018;-85
2024/04/02 03:53:23;;;;;;;3.42;1.30;;;9.50;99.90;;;;;;5024086;28;20056;-90
2024/04/02 03:55:59;;;;;;;1.75;0.90;;;9.50;99.90;;;;;;5016493;28;20054;-90
2024/04/02 03:58:27;;;;;;;1.92;1.35;;;9.50;99.90;;;;;;5017664;28;20034;-87
2024/04/02 04:00:58;;;;;;;2.10;1.10;;;9.50;99.90;;;;;;4998667;28;20038;-87
2024/04/02 04:03:25;;;;;;;2.28;1.23;;;9.40;99.90;;;;;;5017082;28;20026;-89
2024/04/02 04:06:04;;;;;;;2.90;1.35;;;9.40;99.90;;;;;;4999552;28;20062;-91
2024/04/02 04:08:34;;;;;;;1.10;0.95;;;9.40;99.90;;;;;;4999968;28;20029;-87
2024/04/02 04:11:00;;;;;;;2.65;1.30;;;9.40;99.90;;;;;;4999839;28;20035;-93
2024/04/02 04:13:26;;;;;;;1.98;0.95;;;9.40;99.90;;;;;;4983944;28;20546;-92
2024/04/02 04:15:59;;;;;;;1.75;0.98;;;9.50;99.90;;;;;;4999981;28;20034;-90
2024/04/02 04:18:26;;;;;;;2.50;1.15;;;9.50;99.90;;;;;;5017325;28;20026;-90
2024/04/02 04:20:52;;;;;;;1.75;1.02;;;9.40;99.90;;;;;;4999665;28;20405;-91
2024/04/02 04:23:18;;;;;;;1.83;1.13;;;9.40;99.90;;;;;;5017047;28;20018;-92
2024/04/02 04:25:44;;;;;;;2.08;1.13;;;9.50;99.90;;;;;;4999898;28;20045;-93
2024/04/02 04:28:09;;;;;;;2.78;1.40;;;9.50;99.90;;;;;;4983156;28;20037;-92
2024/04/02 04:30:35;;;;;;;2.92;1.23;;;9.50;99.90;;;;;;4999420;28;20030;-92
2024/04/02 04:33:01;;;;;;;2.10;1.08;;;9.40;99.90;;;;;;4999390;28;20040;-91
2024/04/02 04:35:27;;;;;;;1.75;0.90;;;9.40;99.90;;;;;;4983823;28;20096;-92
2024/04/02 04:37:52;;;;;;;1.63;1.13;;;9.40;99.90;;;;;;4983579;28;20062;-95
2024/04/02 04:40:18;;;;;;;3.67;1.23;;;9.40;99.90;;;;;;4999474;28;20109;-91
2024/04/02 04:42:44;;;;;;;3.35;1.60;;;9.40;99.90;;;;;;4999810;28;20030;-90
2024/04/02 04:45:09;;;;;;;3.22;1.23;;;9.40;99.90;;;;;;4983332;28;20037;-92
2024/04/02 04:47:35;;;;;;;1.38;1.00;;;9.40;99.90;;;;;;4988782;28;20105;-90
2024/04/02 04:50:01;;;;;;;3.83;1.70;;;9.40;99.90;;;;;;4964106;28;20034;-90
2024/04/02 04:52:27;;;;;;;3.45;1.15;;;9.40;99.90;;;;;;4963911;28;20031;-89
2024/04/02 04:54:52;;;;;;;2.17;1.40;;;9.40;99.90;;;;;;4979368;28;20509;-87
2024/04/02 04:57:18;;;;;;;2.88;1.30;;;9.40;99.90;;;;;;4962931;28;20184;-88
2024/04/02 04:59:43;;;;;;;2.22;1.30;;;9.40;99.90;;;;;;4980204;28;20038;-88
2024/04/02 05:02:09;;;;;;;1.85;1.20;;;9.40;99.90;;;;;;4979545;28;20034;-89
2024/04/02 05:04:35;;;;;;;3.22;1.23;;;9.50;99.90;;;;;;4979709;28;20026;-88
2024/04/02 05:07:00;;;;;;;1.70;1.05;;;9.50;99.90;;;;;;4979412;28;20034;-89
2024/04/02 05:09:26;;;;;;;3.85;1.45;;;9.50;99.90;;;;;;4979622;28;20037;-89
2024/04/02 05:11:52;;;;;;;4.07;1.42;;;9.50;99.90;;;;;;4996996;28;20053;-88
2024/04/02 05:14:17;;;;;;;1.92;1.10;;;9.50;99.90;;;;;;4964261;28;20056;-85
2024/04/02 05:16:45;;;;;;;4.55;1.50;;;9.50;99.90;;;;;;4993540;28;20061;-85
2024/04/02 05:19:11;;;;;;;2.80;1.58;;;9.50;99.90;;;;;;5003023;28;20110;-84
2024/04/02 05:21:37;;;;;;;3.35;1.13;;;9.50;99.90;;;;;;5019008;28;20033;-86
2024/04/02 05:24:03;;;;;;;3.25;1.50;;;9.60;99.90;;;;;;5017452;28;20042;-86
2024/04/02 05:26:29;;;;;;;2.65;1.17;;;9.60;99.90;;;;;;4998905;28;20507;-86
2024/04/02 05:28:54;;;;;;;2.20;1.20;;;9.60;99.90;;;;;;4962245;28;20053;-87
2024/04/02 05:31:20;;;;;;;3.97;1.58;;;9.60;99.90;;;;;;4977719;28;20534;-87
2024/04/02 05:33:46;;;;;;;2.75;1.30;;;9.60;99.90;;;;;;4995058;28;20034;-87
2024/04/02 05:36:11;;;;;;;2.47;1.52;;;9.70;99.90;;;;;;4995051;28;20030;-86
2024/04/02 05:38:37;;;;;;;3.05;1.27;;;9.70;99.90;;;;;;4978341;28;20034;-87
2024/04/02 05:41:03;;;;;;;3.65;1.35;;;9.70;99.90;;;;;;4977718;28;20035;-87
2024/04/02 05:43:28;;;;;;;2.53;1.40;;;9.80;99.90;;;;;;4978120;28;20478;-87
2024/04/02 05:45:54;;;;;;;2.70;1.20;;;9.80;99.90;;;;;;4977533;28;20538;-87
2024/04/02 05:48:20;;;;;;;2.03;1.10;;;9.80;99.90;;;;;;4961159;28;20046;-88
2024/04/02 05:50:55;;;;;;;1.58;1.10;;;9.80;99.90;;;;;;4961561;28;20023;-87
2024/04/02 05:53:21;;;;;;;2.90;1.23;;;9.90;99.90;;;;;;4977396;28;20027;-86
2024/04/02 05:55:47;;;;;;;3.15;1.10;;;9.90;99.90;;;;;;4961408;28;20466;-87
2024/04/02 05:58:13;;;;;;;2.65;1.30;;;9.90;99.90;;;;;;4977173;28;20118;-85
2024/04/02 06:00:38;;;;;;;1.80;1.20;;;9.90;99.90;;;;;;4977579;28;20467;-87
2024/04/02 06:03:05;;;;;;;1.58;1.15;;;10.10;99.90;;;;;;4961319;28;20382;-87
2024/04/02 06:05:33;;;;;;;2.20;1.38;;;10.10;99.90;;;;;;4961245;28;20065;-87
2024/04/02 06:07:58;;;;;;;2.40;1.58;;;10.10;99.90;;;;;;4977142;28;20477;-86
2024/04/02 06:10:26;;;;;;;1.83;1.40;;;10.10;99.90;;;;;;4961364;28;20018;-86
2024/04/02 06:12:52;;;;;;;2.97;1.33;;;10.20;99.90;;;;;;4977610;28;20057;-86
2024/04/02 06:15:18;;;;;;;4.80;1.13;;;10.10;99.90;;;;;;4994936;28;20062;-85
2024/04/02 06:17:44;;;;;;;2.45;1.38;;;10.20;99.90;;;;;;4995011;28;20521;-86
2024/04/02 06:20:10;;;;;;;3.42;1.40;;;10.20;99.90;;;;;;4977277;28;20065;-86
2024/04/02 06:22:37;;;;;;;3.40;1.30;;;10.20;99.90;;;;;;4976844;28;20108;-88
2024/04/02 06:25:03;;;;;;;3.17;1.60;;;10.20;99.90;;;;;;4961394;28;20031;-87
2024/04/02 06:27:28;;;;;;;4.75;1.30;;;10.20;99.90;;;;;;4961182;28;20030;-87
2024/04/02 06:29:54;;;;;;;3.78;1.63;;;10.20;99.90;;;;;;4977709;28;20026;-87
2024/04/02 06:32:22;;;;;;;3.67;1.55;;;10.20;99.90;;;;;;4977222;28;20038;-87
2024/04/02 06:34:48;;;;;;;3.00;1.20;;;10.20;99.90;;;;;;4978390;28;20029;-87
2024/04/02 06:37:14;;;;;;;2.72;1.50;;;10.20;99.90;;;;;;4977965;28;20405;-87
2024/04/02 06:39:40;;;;;;;3.50;1.45;;;10.20;99.90;;;;;;4961990;28;20340;-87
2024/04/02 06:42:05;;;;;;;3.05;1.40;;;10.20;99.90;;;;;;4978055;28;20031;-87
2024/04/02 06:44:31;;;;;;;4.13;1.50;;;10.20;99.90;;;;;;4962790;28;20054;-86
2024/04/02 06:46:57;;;;;;;4.43;1.67;;;10.30;99.90;;;;;;4975668;28;20532;-86
2024/04/02 06:49:22;;;;;;;5.93;1.85;;;10.30;99.90;;;;;;5001785;28;20015;-87
2024/04/02 06:51:48;;;;;;;3.97;1.60;;;10.30;99.90;;;;;;5001763;28;20034;-88
2024/04/02 06:54:15;;;;;;;3.42;1.48;;;10.40;99.90;;;;;;5000985;28;20023;-85
2024/04/02 06:56:41;;;;;;;6.78;1.63;;;10.40;99.90;;;;;;4987478;28;20471;-86
2024/04/02 06:59:06;;;;;;;4.72;2.15;;;10.40;99.90;;;;;;4977598;28;20080;-86
2024/04/02 07:01:32;;;;;;;4.47;1.70;;;10.40;99.90;;;;;;4961079;28;20080;-86
2024/04/02 07:03:57;;;;;;;5.00;2.10;;;10.50;99.90;;;;;;4960921;28;20085;-86
2024/04/02 07:06:23;;;;;;;3.58;1.70;;;10.50;99.90;;;;;;4976707;28;20038;-86
2024/04/02 07:08:49;;;;;;;6.13;2.08;;;10.50;99.90;;;;;;4976471;28;20022;-86
2024/04/02 07:11:15;;;;;;;4.97;1.77;;;10.60;99.90;;;;;;4960782;28;20042;-86
2024/04/02 07:13:41;;;;;;;6.57;2.00;;;10.60;99.90;;;;;;4976827;28;20101;-87
2024/04/02 07:16:07;;;;;;;6.32;1.90;;;10.60;99.90;;;;;;4960506;28;20109;-85
2024/04/02 07:18:35;;;;;;;4.22;1.58;;;10.60;99.90;;;;;;4976972;28;20467;-86
2024/04/02 07:21:05;;;;;;;4.60;1.98;;;10.70;99.90;;;;;;4976928;28;20030;-86
2024/04/02 07:23:31;;;;;;;5.30;1.73;;;10.70;99.90;;;;;;4976624;28;20076;-87
2024/04/02 07:25:57;;;;;;;5.18;2.05;;;10.70;99.90;;;;;;4976248;28;20031;-87
2024/04/02 07:28:23;;;;;;;5.93;2.40;;;10.70;99.90;;;;;;4976019;28;20114;-86
2024/04/02 07:30:50;;;;;;;6.05;2.35;;;10.70;99.90;;;;;;4991989;28;20023;-86
2024/04/02 07:33:16;;;;;;;3.40;1.80;;;10.70;99.90;;;;;;4993046;28;20027;-86
2024/04/02 07:35:45;;;;;;;5.28;2.33;;;10.70;99.90;;;;;;4996944;28;20553;-87
2024/04/02 07:38:12;;;;;;;4.93;2.20;;;10.70;99.90;;;;;;4983917;28;20068;-88
2024/04/02 07:40:38;;;;;;;6.75;2.17;;;10.80;99.90;;;;;;4999341;28;20393;-86
2024/04/02 07:43:06;;;;;;;7.75;2.33;;;10.80;99.90;;;;;;4983175;28;20490;-86
2024/04/02 07:45:35;;;;;;;8.57;2.70;;;10.80;99.90;;;;;;4999358;28;20061;-87
2024/04/02 07:48:02;;;;;;;5.93;2.35;;;10.90;99.90;;;;;;4998978;28;20045;-86
2024/04/02 07:50:33;;;;;;;7.95;2.55;;;10.90;99.90;;;;;;4999112;28;20386;-86
2024/04/02 07:52:59;;;;;;;6.75;2.83;;;10.90;99.90;;;;;;4999615;28;20100;-86
2024/04/02 07:55:24;;;;;;;5.50;2.22;;;10.90;99.90;;;;;;4998774;28;20030;-87
2024/04/02 07:57:50;;;;;;;6.82;2.20;;;10.90;99.90;;;;;;4999256;28;20052;-87
2024/04/02 08:00:17;;;;;;;6.13;2.65;;;10.90;99.90;;;;;;4999344;28;20056;-86
2024/04/02 08:02:43;;;;;;;5.75;2.10;;;10.90;99.90;;;;;;4999441;28;20030;-87
2024/04/02 08:05:09;;;;;;;5.57;2.00;;;10.90;99.90;;;;;;4999115;28;20116;-86
2024/04/02 08:07:35;;;;;;;5.10;1.80;;;11.00;99.90;;;;;;4999023;28;20061;-86
2024/04/02 08:10:00;;;;;;;7.15;2.08;;;11.00;99.90;;;;;;4983188;28;20065;-86
2024/04/02 08:12:26;;;;;;;6.95;2.08;;;11.10;99.90;;;;;;4983463;28;20026;-87
2024/04/02 08:14:52;;;;;;;6.47;2.10;;;11.10;99.90;;;;;;5003999;28;20034;-87
2024/04/02 08:17:21;;;;;;;5.03;1.88;;;11.10;99.90;;;;;;4995680;28;20044;-87
2024/04/02 08:19:46;;;;;;;6.85;1.85;;;11.20;99.90;;;;;;5040603;28;20044;-85
2024/04/02 08:22:13;;;;;;;8.05;2.00;;;11.20;99.90;;;;;;5023713;28;20006;-86
2024/04/02 08:24:39;;;;;;;4.82;1.73;;;11.20;99.90;;;;;;5023056;28;20014;-86
2024/04/02 08:27:05;;;;;;;5.38;2.00;;;11.20;99.90;;;;;;5019039;28;20034;-87
2024/04/02 08:29:31;;;;;;;5.35;2.03;;;11.20;99.90;;;;;;4999230;28;20030;-86
2024/04/02 08:31:57;;;;;;;6.78;2.63;;;11.20;99.90;;;;;;5016144;28;20048;-86
2024/04/02 08:34:23;;;;;;;10.25;2.00;;;11.30;99.90;;;;;;4998647;28;20061;-86
2024/04/02 08:36:48;;;;;;;4.90;1.80;;;11.30;99.90;;;;;;4998863;28;20032;-86
2024/04/02 08:39:14;;;;;;;6.88;1.80;;;11.30;99.90;;;;;;4998720;28;20042;-87
2024/04/02 08:41:41;;;;;;;6.43;2.03;;;11.40;99.90;;;;;;4982173;28;20040;-87
2024/04/02 08:44:07;;;;;;;6.18;2.15;;;11.40;99.90;;;;;;4982280;28;20022;-87
2024/04/02 08:46:33;;;;;;;6.88;1.73;;;11.40;99.90;;;;;;4997583;28;20037;-86
2024/04/02 08:48:59;;;;;;;4.97;1.58;;;11.40;99.90;;;;;;4998733;28;20026;-86
2024/04/02 08:51:29;;;;;;;5.90;1.80;;;11.40;99.90;;;;;;4998785;28;20148;-86
2024/04/02 08:53:57;;;;;;;6.75;2.05;;;11.40;99.90;;;;;;4982712;28;20026;-86
2024/04/02 08:56:23;;;;;;;5.55;1.67;;;11.50;99.90;;;;;;4997727;28;20029;-86
2024/04/02 08:58:52;;;;;;;3.38;1.60;;;11.50;99.90;;;;;;4997894;28;20112;-87
2024/04/02 09:01:19;;;;;;;7.68;2.38;;;11.50;99.90;;;;;;4998046;28;20026;-85
2024/04/02 09:03:46;;;;;;;6.50;1.67;;;11.60;99.90;;;;;;4996841;28;20095;-86
2024/04/02 09:06:12;;;;;;;5.35;1.60;;;11.60;99.90;;;;;;4997821;28;20038;-86
2024/04/02 09:08:48;;;;;;;7.75;2.08;;;11.70;99.90;;;;;;4997621;28;20029;-87
2024/04/02 09:11:14;;;;;;;5.97;2.13;;;11.70;99.90;;;;;;4997649;28;20041;-87
2024/04/02 09:13:40;;;;;;;5.60;1.90;;;11.70;99.90;;;;;;4997816;28;20025;-87
2024/04/02 09:16:07;;;;;;;5.10;1.80;;;11.80;99.90;;;;;;5014673;28;20359;-87
2024/04/02 09:18:37;;;;;;;6.00;1.80;;;11.80;99.90;;;;;;5014862;28;20026;-87
2024/04/02 09:21:03;;;;;;;6.78;1.88;;;11.80;99.90;;;;;;4997499;28;20026;-87
2024/04/02 09:23:29;;;;;;;7.85;2.08;;;11.90;99.90;;;;;;4997679;28;20113;-86
2024/04/02 09:25:56;;;;;;;5.80;1.90;;;11.90;99.90;;;;;;4997410;28;20041;-86
2024/04/02 09:28:24;;;;;;;5.97;1.83;;;12.00;99.90;;;;;;5015292;28;20072;-85
2024/04/02 09:30:51;;;;;;;4.60;1.42;;;12.10;99.90;;;;;;4997647;28;20058;-86
2024/04/02 09:33:17;;;;;;;6.93;2.20;;;12.10;99.90;;;;;;5015362;28;20064;-85
2024/04/02 09:35:56;;;;;;;7.20;2.30;;;12.20;99.90;;;;;;4981305;28;20040;-86
2024/04/02 09:38:23;;;;;;;6.68;2.10;;;12.20;99.90;;;;;;4997911;28;20026;-87
2024/04/02 09:40:50;;;;;;;7.93;2.03;;;12.10;99.90;;;;;;5015109;28;20382;-87
2024/04/02 09:43:18;;;;;;;6.10;1.45;;;12.20;99.90;;;;;;4997847;28;20029;-87
2024/04/02 09:45:46;;;;;;;6.68;1.88;;;12.20;99.90;;;;;;4999717;28;20172;-86
2024/04/02 09:48:13;;;;;;;5.72;1.38;;;12.20;99.90;;;;;;4973575;28;20070;-86
2024/04/02 09:50:41;;;;;;;4.82;1.30;;;12.20;99.90;;;;;;4963817;28;20034;-87
2024/04/02 09:53:08;;;;;;;4.00;1.63;;;12.40;99.90;;;;;;4998556;28;20017;-86
2024/04/02 09:55:34;;;;;;;6.88;1.90;;;12.40;99.90;;;;;;5001905;28;20066;-84
2024/04/02 09:58:01;;;;;;;6.60;1.95;;;12.50;99.90;;;;;;4985617;28;20010;-85
2024/04/02 10:00:31;;;;;;;6.38;1.80;;;12.60;99.90;;;;;;5018830;28;20014;-87
2024/04/02 10:02:59;;;;;;;5.53;1.80;;;12.60;99.90;;;;;;4986096;28;20053;-85
2024/04/02 10:05:26;;;;;;;4.57;1.75;;;12.60;99.90;;;;;;4961973;28;20473;-87
2024/04/02 10:07:52;;;;;;;7.05;1.40;;;12.60;99.90;;;;;;4977519;28;20552;-86
2024/04/02 10:10:18;;;;;;;7.22;1.90;;;12.70;99.90;;;;;;4977297;28;20026;-87
2024/04/02 10:12:52;;;;;;;7.93;1.90;;;12.70;99.90;;;;;;4977266;28;20030;-87
2024/04/02 10:15:19;;;;;;;7.18;1.55;;;12.80;99.90;;;;;;4977139;28;20076;-88
2024/04/02 10:17:44;;;;;;;6.03;1.23;;;12.90;99.90;;;;;;4977273;28;20136;-87
2024/04/02 10:20:18;;;;;;;4.20;1.38;;;13.00;99.90;;;;;;4977675;28;20128;-86
2024/04/02 10:22:44;;;;;;;6.50;1.67;;;13.10;99.90;;;;;;4978114;28;20025;-86
2024/04/02 10:25:12;;;;;;;5.18;1.40;;;13.10;99.90;;;;;;4995324;28;20098;-86
2024/04/02 10:27:42;;;;;;;4.85;1.55;;;13.20;99.90;;;;;;4994675;28;20085;-86
2024/04/02 10:30:18;;;;;;;4.90;1.40;;;13.20;99.90;;;;;;4961175;28;20014;-87
2024/04/02 10:32:44;;;;;;;7.68;1.30;;;13.20;99.90;;;;;;4994530;28;20063;-88
2024/04/02 10:35:17;;;;;;;5.70;1.50;;;13.30;99.90;;;;;;4961157;28;20042;-88
2024/04/02 10:37:42;;;;;;;4.57;1.63;;;13.20;99.90;;;;;;4960851;28;20038;-87
2024/04/02 10:40:08;;;;;;;3.63;1.27;;;13.00;99.90;;;;;;4960822;28;20089;-87
2024/04/02 10:42:34;;;;;;;3.45;1.23;;;12.90;99.90;;;;;;4976567;28;20027;-85
2024/04/02 10:45:02;;;;;;;3.28;1.27;;;12.90;99.90;;;;;;4961012;28;20019;-86
2024/04/02 10:47:29;;;;;;;3.50;1.20;;;12.80;99.90;;;;;;4978515;28;20475;-86
2024/04/02 10:49:56;;;;;;;3.95;1.05;;;12.90;99.90;;;;;;4960600;28;20033;-86
2024/04/02 10:52:21;;;;;;;4.15;1.27;;;12.90;99.90;;;;;;4977169;28;20039;-86
2024/04/02 10:54:47;;;;;;;5.53;1.40;;;12.90;99.90;;;;;;4976789;28;20035;-87
2024/04/02 10:57:13;;;;;;;4.53;1.48;;;12.90;99.90;;;;;;4976906;28;20375;-87
2024/04/02 10:59:45;;;;;;;4.32;1.40;;;12.90;99.90;;;;;;4960847;28;20041;-86
2024/04/02 11:02:18;;;;;;;3.97;1.17;;;12.90;99.90;;;;;;4960896;28;20477;-86
2024/04/02 11:04:46;;;;;;;3.72;1.75;;;12.80;99.90;;;;;;4976790;28;20030;-86
2024/04/02 11:07:12;;;;;;;2.83;1.17;;;12.60;99.90;;;;;;4976507;28;20061;-87
2024/04/02 11:09:40;;;;;;;3.13;1.27;;;12.60;99.90;;;;;;4996031;28;20458;-86
2024/04/02 11:12:07;;;;;;;4.10;2.13;;;12.60;99.90;;;;;;4964294;28;20034;-87
2024/04/02 11:14:39;;;;;;;5.10;1.38;;;12.60;99.90;;;;;;4998188;28;20030;-87
2024/04/02 11:17:08;;;;;;;5.20;1.40;;;12.60;99.90;;;;;;4965292;28;20044;-87
2024/04/02 11:19:36;;;;;;;4.03;1.35;;;12.60;99.90;;;;;;4980638;28;20030;-87
2024/04/02 11:24:58;;;;;;;3.15;1.00;;;12.60;99.90;;;;;;4999454;28;20061;-86
2024/04/02 11:27:27;;;;;;;5.45;1.60;;;12.70;99.90;;;;;;4990336;28;20074;-87
2024/04/02 11:29:54;;;;;;;3.78;1.50;;;12.70;99.90;;;;;;5033788;28;20013;-86
2024/04/02 11:32:23;;;;;;;4.97;1.27;;;12.60;99.90;;;;;;5008239;28;20060;-87
2024/04/02 11:35:16;;;;;;;3.17;1.15;;;12.60;99.90;;;;;;5024107;28;20018;-87
2024/04/02 11:37:43;;;;;;;3.08;1.10;;;12.60;99.90;;;;;;5008476;28;20038;-87
2024/04/02 11:40:15;;;;;;;3.63;1.58;;;12.60;99.90;;;;;;5017937;28;20033;-87
2024/04/02 11:42:42;;;;;;;6.63;1.63;;;12.60;99.90;;;;;;4984668;28;20477;-86
2024/04/02 11:45:08;;;;;;;4.72;1.50;;;12.60;99.90;;;;;;5000382;28;20121;-86
2024/04/02 11:47:33;;;;;;;2.45;1.17;;;12.50;99.90;;;;;;5000257;28;20565;-86
2024/04/02 11:50:00;;;;;;;4.97;1.38;;;12.50;99.90;;;;;;4983076;28;20216;-87
2024/04/02 11:52:26;;;;;;;3.80;1.10;;;12.40;99.90;;;;;;4999731;28;20084;-87
2024/04/02 11:54:54;;;;;;;3.75;1.23;;;12.40;99.90;;;;;;4999082;28;20026;-85
2024/04/02 12:00:10;;;;;;;5.00;1.45;;;12.40;99.90;;;;;;5002305;28;20037;-86
2024/04/02 12:02:38;;;;;;;3.88;1.02;;;12.40;99.90;;;;;;4999326;28;20021;-86
2024/04/02 12:05:04;;;;;;;3.72;1.30;;;12.50;99.90;;;;;;4998941;28;20033;-87
2024/04/02 12:07:30;;;;;;;3.67;1.20;;;12.50;99.90;;;;;;4998976;28;20030;-87
2024/04/02 12:09:59;;;;;;;1.90;1.10;;;12.50;99.90;;;;;;4999130;28;20034;-87
2024/04/02 12:12:29;;;;;;;3.67;1.40;;;12.50;99.90;;;;;;4999074;28;20430;-86
2024/04/02 12:14:56;;;;;;;5.10;1.20;;;12.60;99.90;;;;;;4998851;28;20033;-87
2024/04/02 12:17:22;;;;;;;3.83;1.20;;;12.60;99.90;;;;;;4999013;28;20103;-87
2024/04/02 12:19:52;;;;;;;3.70;1.20;;;12.60;99.90;;;;;;5016703;28;20030;-87
2024/04/02 12:22:18;;;;;;;2.90;1.15;;;12.60;99.90;;;;;;4998553;28;20037;-87
2024/04/02 12:24:44;;;;;;;5.18;1.67;;;12.70;99.90;;;;;;4998734;28;20026;-86
2024/04/02 12:27:10;;;;;;;6.45;1.42;;;12.60;99.90;;;;;;4998317;28;20359;-86
2024/04/02 12:29:39;;;;;;;4.43;1.30;;;12.60;99.90;;;;;;4982764;28;20537;-86
2024/04/02 12:32:07;;;;;;;3.20;1.27;;;12.60;99.90;;;;;;4998688;28;20030;-86
2024/04/02 12:34:36;;;;;;;2.75;1.27;;;12.70;99.90;;;;;;4999645;28;20053;-87
2024/04/02 12:37:02;;;;;;;2.83;1.10;;;12.70;99.90;;;;;;4998530;28;20029;-86
2024/04/02 12:39:31;;;;;;;3.58;1.38;;;12.70;99.90;;;;;;4998861;28;20026;-87
2024/04/02 12:41:57;;;;;;;4.38;1.35;;;12.70;99.90;;;;;;5015666;28;20033;-87
2024/04/02 12:44:23;;;;;;;3.67;1.10;;;12.80;99.90;;;;;;5016436;28;20425;-87
2024/04/02 12:46:48;;;;;;;3.92;1.30;;;12.70;99.90;;;;;;5016374;28;20466;-88
2024/04/02 12:49:15;;;;;;;3.50;1.40;;;12.70;99.90;;;;;;4982500;28;20022;-86
2024/04/02 12:51:41;;;;;;;3.97;1.15;;;12.80;99.90;;;;;;4982569;28;20094;-87
2024/04/02 12:54:06;;;;;;;4.47;1.35;;;12.70;99.90;;;;;;4999597;28;20120;-86